Decoded Metar for LEJR (JEREZ in SPAIN) (IATA:XRY) | Meteo·Mobile Aviation Weather
aviador You're here:

LEJR Decoded Metar

JEREZ in SPAIN
Report Time2019-01-18 11:00:00
UTC Time2019-01-18 11:16:18
Flight Rules vfr VFR
Wind350° at 09 kt
W.Decomp.*RWY 02: 7.9 kt HW 4.2 kt LCW
W.Rank350° ranks 18
Current wind is above 350° avg. (6.2)
Visibility9999 m
Phenomena:N/A
Clouds:N/A
Expected CloudBase > 2,000 ft AGL from Temp-Dew spread
CeilingNone
Temp11°C (ISA -4)
Dew Point06°C (72% RH)
AAT6.9°C
QNH1022 hPa
Density Alt-531 ft
Elevation98 ft
Report Wrong Elevation
Raw Report
LEJR 181100Z 35009KT 310V020 CAVOK 11/06 Q1022=

Extra information for LEJR:More info

Metar Taf Metar & Taf Last 4 Metars F.Rules Stats Wind Profile Meteogram Temp Stats Airport Information Weather charts Add Link Nearby VenuesMetar ALERT Operation Metar Decoded Social comments